Weather reports worldwide

Advertisment
Madrid, Spain (8222): temperature & dewpoint: 17.07.2019 22:00:00 - 23.07.2019 22:00:00 (CEST)Madrid, Spain (8222): wind speed & gusts: 17.07.2019 22:00:00 - 23.07.2019 22:00:00 (CEST)Madrid, Spain (8222): wind direction: 17.07.2019 22:00:00 - 23.07.2019 22:00:00 (CEST)Madrid, Spain (8222): precipitation: 17.07.2019 22:00:00 - 23.07.2019 22:00:00 (CEST)
Date & Time tt [°C] td [°C] ff [km/h] ff [kn] fx [km/h] fx [kn] dd rr [mm]
23.07.2019 22:00:00 25,8 13,3 7 4 19 11 W 0,1
23.07.2019 21:00:00 25,1 14,0 5 3 37 20 W 0,2
23.07.2019 20:00:00 27,1 10,8 18 10 52 28 SW -
23.07.2019 19:00:00 35,5 7,6 5 3 24 13 S 0,0
23.07.2019 18:00:00 36,2 8,9 10 5 23 13 S 0,0
23.07.2019 17:00:00 34,9 8,6 7 4 26 14 SSW 0,0
23.07.2019 16:00:00 37,3 8,2 9 5 24 13 SSE 0,0
23.07.2019 15:00:00 36,5 8,4 8 4 22 12 SE 0,0
23.07.2019 14:00:00 34,8 7,8 10 6 21 12 SE -
23.07.2019 13:00:00 33,0 7,8 2 1 24 13 NE 0,0
23.07.2019 12:00:00 30,0 7,8 5 3 16 8 ENE 0,0
23.07.2019 11:00:00 28,4 6,5 1 1 16 8 SSE 0,0
23.07.2019 10:00:00 26,9 6,3 5 3 15 8 ESE 0,0
23.07.2019 09:00:00 25,7 5,8 8 5 21 11 ESE 0,0
23.07.2019 08:00:00 25,2 5,4 6 3 11 6 ESE -
23.07.2019 07:00:00 25,0 4,7 5 3 13 7 E 0,0
23.07.2019 06:00:00 25,4 4,5 2 1 19 10 E 0,0
23.07.2019 05:00:00 26,5 4,9 9 5 21 11 E 0,0
23.07.2019 04:00:00 27,0 5,9 6 4 21 12 ESE 0,0
23.07.2019 03:00:00 27,7 5,9 9 5 22 12 ESE 0,0
23.07.2019 02:00:00 28,0 6,2 6 3 21 11 E -
23.07.2019 01:00:00 29,2 7,2 9 5 34 18 SE 0,0
23.07.2019 00:00:00 30,1 6,7 17 9 31 17 SE 0,0
22.07.2019 23:00:00 32,0 3,9 13 7 38 20 SSE 0,0
22.07.2019 22:00:00 33,1 5,6 17 9 35 19 SE 0,0
22.07.2019 21:00:00 34,5 7,5 16 9 34 19 SE 0,0
22.07.2019 20:00:00 35,2 8,1 17 9 34 18 SE -
22.07.2019 19:00:00 36,2 8,9 13 7 35 19 SSE 0,0
22.07.2019 18:00:00 36,4 9,1 10 6 33 18 SSE 0,0
22.07.2019 17:00:00 36,1 8,8 11 6 30 16 SE 0,0
22.07.2019 16:00:00 36,8 8,6 13 7 27 15 SE 0,0
22.07.2019 15:00:00 35,8 9,3 4 2 23 12 ESE 0,0
22.07.2019 14:00:00 34,2 9,4 9 5 24 13 E -
22.07.2019 13:00:00 32,1 8,4 8 4 21 12 SSE 0,0
22.07.2019 12:00:00 30,9 8,6 10 6 24 13 E 0,0
22.07.2019 11:00:00 28,3 7,5 6 3 20 11 ESE 0,0
22.07.2019 10:00:00 26,7 7,2 8 4 18 10 E 0,0
22.07.2019 09:00:00 24,9 7,1 8 5 16 9 E 0,0
22.07.2019 08:00:00 23,9 6,2 9 5 16 9 E -
22.07.2019 07:00:00 24,1 6,8 6 4 17 9 E 0,0
22.07.2019 06:00:00 24,1 7,7 4 2 15 8 ENE 0,0
22.07.2019 05:00:00 24,6 8,1 5 3 19 10 E 0,0
22.07.2019 04:00:00 25,0 8,9 6 3 26 14 ENE 0,0
22.07.2019 03:00:00 26,0 9,4 11 6 21 12 ESE 0,0
22.07.2019 02:00:00 26,9 10,2 8 5 28 15 ESE -
22.07.2019 01:00:00 27,8 10,9 12 7 33 18 SSE 0,0
22.07.2019 00:00:00 28,6 12,5 13 7 29 16 SSE 0,0
21.07.2019 23:00:00 27,2 13,9 10 5 34 18 SSE 0,0
21.07.2019 22:00:00 23,3 17,5 8 4 41 22 ESE 1,6
21.07.2019 21:00:00 22,5 14,6 17 9 48 26 WNW 6,0
21.07.2019 20:00:00 36,0 12,2 8 4 28 15 S -
21.07.2019 19:00:00 35,7 12,0 2 1 24 13 W 0,0
21.07.2019 18:00:00 35,5 12,4 8 4 26 14 S 0,0
21.07.2019 17:00:00 35,7 13,2 6 3 16 9 SSW 0,0
21.07.2019 16:00:00 37,7 12,3 5 3 17 9 S 0,0
21.07.2019 15:00:00 36,8 12,9 5 3 18 10 SSE 0,0
21.07.2019 14:00:00 34,5 12,2 4 2 18 10 E -
21.07.2019 13:00:00 32,8 11,9 8 4 21 12 E 0,0
21.07.2019 12:00:00 31,1 11,5 6 4 18 10 ENE 0,0
21.07.2019 11:00:00 28,7 10,4 5 3 17 9 ENE 0,0
21.07.2019 10:00:00 27,1 9,9 7 4 17 9 E 0,0
21.07.2019 09:00:00 25,5 9,3 7 4 16 8 E 0,0
21.07.2019 08:00:00 24,8 8,7 7 4 13 7 E -
21.07.2019 07:00:00 25,1 8,6 6 4 18 10 E 0,0
21.07.2019 06:00:00 25,5 8,9 6 3 21 11 ESE 0,0
21.07.2019 05:00:00 25,8 8,8 6 3 14 8 E 0,0
21.07.2019 04:00:00 26,5 8,5 9 5 21 11 ESE 0,0
21.07.2019 03:00:00 27,4 8,8 8 4 31 17 SSE 0,0
21.07.2019 02:00:00 28,6 9,8 14 8 31 17 S -
21.07.2019 01:00:00 29,8 10,4 15 8 29 15 SSE 0,0
21.07.2019 00:00:00 29,8 8,8 6 3 14 8 NNW 0,0
20.07.2019 23:00:00 30,8 9,1 6 3 16 9 WNW 0,0
20.07.2019 22:00:00 31,7 9,8 7 4 18 10 W 0,0
20.07.2019 21:00:00 33,4 10,7 8 4 19 11 W 0,0
20.07.2019 20:00:00 34,4 10,9 3 2 21 11 SW -
20.07.2019 19:00:00 35,7 11,4 12 6 24 13 W 0,0
20.07.2019 18:00:00 35,8 11,4 9 5 23 12 W 0,0
20.07.2019 17:00:00 36,5 12,0 6 3 17 9 W 0,0
20.07.2019 16:00:00 36,5 12,0 4 2 16 9 SSW 0,0
20.07.2019 15:00:00 36,2 13,0 2 1 14 8 SSE 0,0
20.07.2019 14:00:00 34,0 12,4 6 3 15 8 SE -
20.07.2019 13:00:00 32,9 12,5 5 3 23 12 ESE 0,0
20.07.2019 12:00:00 30,5 11,5 8 5 16 9 SE 0,0
20.07.2019 11:00:00 27,4 10,6 6 3 19 10 E 0,0
20.07.2019 10:00:00 26,1 9,9 6 4 19 10 E 0,0
20.07.2019 09:00:00 24,9 9,2 10 5 19 10 E 0,0
20.07.2019 08:00:00 24,0 8,8 9 5 21 11 ESE -
20.07.2019 07:00:00 24,2 8,2 9 5 17 9 ESE 0,0
20.07.2019 06:00:00 24,9 8,0 8 5 19 10 E 0,0
20.07.2019 05:00:00 25,0 6,7 2 1 11 6 ENE 0,0
20.07.2019 04:00:00 26,1 6,2 1 1 19 11 WNW 0,0
20.07.2019 03:00:00 27,3 6,1 8 4 22 12 SSE 0,0
20.07.2019 02:00:00 28,5 6,6 10 5 23 12 S -
20.07.2019 01:00:00 29,5 6,8 8 5 27 15 S 0,0
20.07.2019 00:00:00 31,3 7,1 13 7 33 18 SSE 0,0
19.07.2019 23:00:00 29,9 8,3 5 3 9 5 WNW 0,0
19.07.2019 22:00:00 31,3 9,5 4 2 14 7 W 0,0
19.07.2019 21:00:00 33,3 10,6 6 3 19 11 SW 0,0
19.07.2019 20:00:00 33,4 10,7 4 2 22 12 WSW -
19.07.2019 19:00:00 35,4 11,1 9 5 25 14 WSW 0,0
19.07.2019 18:00:00 36,0 10,9 9 5 31 17 WSW 0,0
19.07.2019 17:00:00 35,8 10,8 8 4 29 16 SW 0,0
19.07.2019 16:00:00 36,1 11,7 12 6 31 17 WSW 0,0
19.07.2019 15:00:00 35,3 12,3 11 6 22 12 SW 0,0
19.07.2019 14:00:00 34,4 12,7 6 3 21 11 SE -
19.07.2019 13:00:00 32,2 11,9 4 2 18 10 SSE 0,0
19.07.2019 12:00:00 29,3 10,9 3 2 13 7 SE 0,0
19.07.2019 11:00:00 27,4 10,6 4 2 13 7 SE 0,0
19.07.2019 10:00:00 25,5 9,3 4 2 17 9 E 0,0
19.07.2019 09:00:00 24,0 8,4 7 4 19 10 ENE 0,0
19.07.2019 08:00:00 22,8 7,4 8 4 19 11 NE -
19.07.2019 07:00:00 22,8 7,0 9 5 25 13 NE 0,0
19.07.2019 06:00:00 23,6 7,3 11 6 29 16 NE 0,0
19.07.2019 05:00:00 23,9 7,5 11 6 28 15 NE 0,0
19.07.2019 04:00:00 24,7 7,8 12 6 27 15 NE 0,0
19.07.2019 03:00:00 25,4 8,4 11 6 33 18 NNE 0,0
19.07.2019 02:00:00 26,3 8,3 15 8 32 17 NE -
19.07.2019 01:00:00 27,8 9,1 14 7 35 19 NE 0,0
19.07.2019 00:00:00 29,7 9,3 16 9 32 18 NE 0,0
18.07.2019 23:00:00 30,6 10,0 9 5 21 12 NE 0,0
18.07.2019 22:00:00 30,9 9,7 5 3 10 5 E 0,0
18.07.2019 21:00:00 31,7 10,4 4 2 12 7 SW 0,0
18.07.2019 20:00:00 32,4 10,4 1 1 10 5 SSW -
18.07.2019 19:00:00 32,8 10,2 1 1 14 8 NW 0,0
18.07.2019 18:00:00 32,0 11,2 8 4 17 9 W 0,0
18.07.2019 17:00:00 33,9 11,1 7 4 18 10 SW 0,0
18.07.2019 16:00:00 35,3 11,7 6 4 19 10 S 0,0
18.07.2019 15:00:00 34,0 11,2 1 1 15 8 WNW 0,0
18.07.2019 14:00:00 33,1 12,7 6 3 16 9 S -
18.07.2019 13:00:00 31,0 11,9 9 5 18 10 SE 0,0
18.07.2019 12:00:00 30,0 12,4 6 3 14 8 ESE 0,0
18.07.2019 11:00:00 26,6 11,1 5 3 15 8 E 0,0
18.07.2019 10:00:00 24,2 10,5 9 5 18 10 ESE 0,0
18.07.2019 09:00:00 22,4 10,5 4 2 21 12 E 0,0
18.07.2019 08:00:00 21,7 9,9 6 4 24 13 NE -
18.07.2019 07:00:00 21,9 10,1 5 3 21 12 NE 0,0
18.07.2019 06:00:00 22,6 10,1 10 5 22 12 NE 0,0
18.07.2019 05:00:00 23,2 9,9 11 6 23 12 NE 0,0
18.07.2019 04:00:00 24,0 10,0 11 6 23 12 NE 0,0
18.07.2019 03:00:00 24,0 8,8 7 4 16 8 NE 0,0
18.07.2019 02:00:00 24,5 8,1 4 2 16 8 NE -
18.07.2019 01:00:00 25,2 8,2 0 0 10 6 NNW 0,0
18.07.2019 00:00:00 26,4 8,4 5 3 19 10 NW 0,0
17.07.2019 23:00:00 27,3 8,7 10 5 22 12 W 0,0
17.07.2019 22:00:00 28,0 7,8 5 3 10 6 W 0,0

tt = temperature
td = dewpoint
ff = wind speed
fx = gusts
dd = wind direction
rr = precipitation

Next stations